sensor_id;sensor_type;location;lat;lon;timestamp;P1;durP1;ratioP1;P2;durP2;ratioP2
33830;SDS011;20137;48.834;8.732;2024-02-26T00:02:22;5.20;;;2.17;;
33830;SDS011;20137;48.834;8.732;2024-02-26T00:04:48;7.25;;;3.15;;
33830;SDS011;20137;48.834;8.732;2024-02-26T00:07:15;5.70;;;2.15;;
33830;SDS011;20137;48.834;8.732;2024-02-26T00:09:40;4.53;;;1.83;;
33830;SDS011;20137;48.834;8.732;2024-02-26T00:12:07;2.25;;;1.08;;
33830;SDS011;20137;48.834;8.732;2024-02-26T00:14:33;1.98;;;1.38;;
33830;SDS011;20137;48.834;8.732;2024-02-26T00:16:59;1.65;;;1.15;;
33830;SDS011;20137;48.834;8.732;2024-02-26T00:19:25;2.55;;;1.30;;
33830;SDS011;20137;48.834;8.732;2024-02-26T00:21:51;2.20;;;1.25;;
33830;SDS011;20137;48.834;8.732;2024-02-26T00:24:18;2.58;;;1.23;;
33830;SDS011;20137;48.834;8.732;2024-02-26T00:26:44;3.83;;;1.25;;
33830;SDS011;20137;48.834;8.732;2024-02-26T00:29:10;3.08;;;1.58;;
33830;SDS011;20137;48.834;8.732;2024-02-26T00:31:36;5.20;;;1.95;;
33830;SDS011;20137;48.834;8.732;2024-02-26T00:34:03;2.58;;;1.52;;
33830;SDS011;20137;48.834;8.732;2024-02-26T00:36:28;2.83;;;1.70;;
33830;SDS011;20137;48.834;8.732;2024-02-26T00:38:54;2.25;;;1.52;;
33830;SDS011;20137;48.834;8.732;2024-02-26T00:41:20;3.25;;;1.50;;
33830;SDS011;20137;48.834;8.732;2024-02-26T00:43:46;3.42;;;1.48;;
33830;SDS011;20137;48.834;8.732;2024-02-26T00:46:12;3.10;;;1.75;;
33830;SDS011;20137;48.834;8.732;2024-02-26T00:48:38;3.03;;;1.85;;
33830;SDS011;20137;48.834;8.732;2024-02-26T00:51:04;9.57;;;2.42;;
33830;SDS011;20137;48.834;8.732;2024-02-26T00:53:33;4.38;;;2.30;;
33830;SDS011;20137;48.834;8.732;2024-02-26T00:55:59;4.15;;;1.88;;
33830;SDS011;20137;48.834;8.732;2024-02-26T00:58:25;2.85;;;1.80;;
33830;SDS011;20137;48.834;8.732;2024-02-26T01:00:51;3.78;;;1.92;;
33830;SDS011;20137;48.834;8.732;2024-02-26T01:03:17;3.28;;;1.52;;
33830;SDS011;20137;48.834;8.732;2024-02-26T01:05:43;2.65;;;1.40;;
33830;SDS011;20137;48.834;8.732;2024-02-26T01:08:08;2.90;;;1.63;;
33830;SDS011;20137;48.834;8.732;2024-02-26T01:10:34;3.03;;;1.42;;
33830;SDS011;20137;48.834;8.732;2024-02-26T01:13:01;2.60;;;1.80;;
33830;SDS011;20137;48.834;8.732;2024-02-26T01:15:27;2.38;;;1.42;;
33830;SDS011;20137;48.834;8.732;2024-02-26T01:17:52;3.22;;;1.70;;
33830;SDS011;20137;48.834;8.732;2024-02-26T01:20:18;2.85;;;1.52;;
33830;SDS011;20137;48.834;8.732;2024-02-26T01:22:45;2.95;;;1.77;;
33830;SDS011;20137;48.834;8.732;2024-02-26T01:25:12;2.55;;;1.48;;
33830;SDS011;20137;48.834;8.732;2024-02-26T01:27:38;2.83;;;1.45;;
33830;SDS011;20137;48.834;8.732;2024-02-26T01:30:06;5.25;;;1.77;;
33830;SDS011;20137;48.834;8.732;2024-02-26T01:32:32;2.28;;;1.40;;
33830;SDS011;20137;48.834;8.732;2024-02-26T01:34:58;2.15;;;1.25;;
33830;SDS011;20137;48.834;8.732;2024-02-26T01:37:24;3.60;;;1.58;;
33830;SDS011;20137;48.834;8.732;2024-02-26T01:39:55;2.13;;;1.30;;
33830;SDS011;20137;48.834;8.732;2024-02-26T01:42:20;1.90;;;0.85;;
33830;SDS011;20137;48.834;8.732;2024-02-26T01:44:46;2.63;;;1.20;;
33830;SDS011;20137;48.834;8.732;2024-02-26T01:47:12;3.55;;;1.08;;
33830;SDS011;20137;48.834;8.732;2024-02-26T01:49:38;1.23;;;0.90;;
33830;SDS011;20137;48.834;8.732;2024-02-26T01:52:06;1.42;;;1.20;;
33830;SDS011;20137;48.834;8.732;2024-02-26T01:54:35;2.10;;;1.08;;
33830;SDS011;20137;48.834;8.732;2024-02-26T01:57:03;2.78;;;1.52;;
33830;SDS011;20137;48.834;8.732;2024-02-26T01:59:31;3.85;;;1.38;;
33830;SDS011;20137;48.834;8.732;2024-02-26T02:01:57;2.88;;;1.10;;
33830;SDS011;20137;48.834;8.732;2024-02-26T02:04:26;1.58;;;0.95;;
33830;SDS011;20137;48.834;8.732;2024-02-26T02:06:52;2.00;;;1.20;;
33830;SDS011;20137;48.834;8.732;2024-02-26T02:09:19;1.30;;;0.80;;
33830;SDS011;20137;48.834;8.732;2024-02-26T02:11:45;3.50;;;0.93;;
33830;SDS011;20137;48.834;8.732;2024-02-26T02:14:13;1.00;;;0.68;;
33830;SDS011;20137;48.834;8.732;2024-02-26T02:16:39;3.83;;;0.80;;
33830;SDS011;20137;48.834;8.732;2024-02-26T02:19:05;1.58;;;0.80;;
33830;SDS011;20137;48.834;8.732;2024-02-26T02:21:30;1.35;;;0.80;;
33830;SDS011;20137;48.834;8.732;2024-02-26T02:23:56;1.52;;;0.77;;
33830;SDS011;20137;48.834;8.732;2024-02-26T02:26:22;1.25;;;0.95;;
33830;SDS011;20137;48.834;8.732;2024-02-26T02:28:47;2.17;;;1.00;;
33830;SDS011;20137;48.834;8.732;2024-02-26T02:31:18;1.65;;;1.02;;
33830;SDS011;20137;48.834;8.732;2024-02-26T02:33:44;2.50;;;0.90;;
33830;SDS011;20137;48.834;8.732;2024-02-26T02:36:09;3.42;;;1.05;;
33830;SDS011;20137;48.834;8.732;2024-02-26T02:38:36;1.63;;;0.93;;
33830;SDS011;20137;48.834;8.732;2024-02-26T02:41:02;2.42;;;1.20;;
33830;SDS011;20137;48.834;8.732;2024-02-26T02:43:29;1.67;;;1.08;;
33830;SDS011;20137;48.834;8.732;2024-02-26T02:45:55;2.67;;;1.02;;
33830;SDS011;20137;48.834;8.732;2024-02-26T02:48:21;3.75;;;1.10;;
33830;SDS011;20137;48.834;8.732;2024-02-26T02:50:46;1.48;;;0.80;;
33830;SDS011;20137;48.834;8.732;2024-02-26T02:53:12;1.75;;;0.93;;
33830;SDS011;20137;48.834;8.732;2024-02-26T02:55:38;1.05;;;0.70;;
33830;SDS011;20137;48.834;8.732;2024-02-26T02:58:04;1.38;;;0.90;;
33830;SDS011;20137;48.834;8.732;2024-02-26T03:00:30;1.48;;;0.88;;
33830;SDS011;20137;48.834;8.732;2024-02-26T03:02:55;3.10;;;1.00;;
33830;SDS011;20137;48.834;8.732;2024-02-26T03:05:21;2.35;;;0.80;;
33830;SDS011;20137;48.834;8.732;2024-02-26T03:07:47;1.40;;;0.90;;
33830;SDS011;20137;48.834;8.732;2024-02-26T03:10:12;4.80;;;0.80;;
33830;SDS011;20137;48.834;8.732;2024-02-26T03:12:38;2.42;;;1.00;;
33830;SDS011;20137;48.834;8.732;2024-02-26T03:15:04;1.40;;;0.73;;
33830;SDS011;20137;48.834;8.732;2024-02-26T03:17:30;1.02;;;0.82;;
33830;SDS011;20137;48.834;8.732;2024-02-26T03:19:56;1.38;;;0.90;;
33830;SDS011;20137;48.834;8.732;2024-02-26T03:22:22;1.05;;;0.75;;
33830;SDS011;20137;48.834;8.732;2024-02-26T03:24:48;1.08;;;0.80;;
33830;SDS011;20137;48.834;8.732;2024-02-26T03:27:13;1.10;;;0.70;;
33830;SDS011;20137;48.834;8.732;2024-02-26T03:29:40;1.70;;;0.80;;
33830;SDS011;20137;48.834;8.732;2024-02-26T03:32:05;0.98;;;0.75;;
33830;SDS011;20137;48.834;8.732;2024-02-26T03:34:32;2.15;;;1.05;;
33830;SDS011;20137;48.834;8.732;2024-02-26T03:37:00;1.85;;;0.90;;
33830;SDS011;20137;48.834;8.732;2024-02-26T03:39:26;1.05;;;0.70;;
33830;SDS011;20137;48.834;8.732;2024-02-26T03:41:52;0.63;;;0.63;;
33830;SDS011;20137;48.834;8.732;2024-02-26T03:44:17;1.92;;;0.70;;
33830;SDS011;20137;48.834;8.732;2024-02-26T03:46:43;0.70;;;0.70;;
33830;SDS011;20137;48.834;8.732;2024-02-26T03:49:09;1.75;;;0.80;;
33830;SDS011;20137;48.834;8.732;2024-02-26T03:51:35;1.00;;;0.70;;
33830;SDS011;20137;48.834;8.732;2024-02-26T03:54:02;1.55;;;0.88;;
33830;SDS011;20137;48.834;8.732;2024-02-26T03:56:28;1.70;;;1.00;;
33830;SDS011;20137;48.834;8.732;2024-02-26T03:58:54;2.72;;;1.00;;
33830;SDS011;20137;48.834;8.732;2024-02-26T04:01:20;1.10;;;0.80;;
33830;SDS011;20137;48.834;8.732;2024-02-26T04:03:46;2.53;;;0.95;;
33830;SDS011;20137;48.834;8.732;2024-02-26T04:06:11;1.85;;;0.60;;
33830;SDS011;20137;48.834;8.732;2024-02-26T04:08:40;0.93;;;0.80;;
33830;SDS011;20137;48.834;8.732;2024-02-26T04:11:06;1.10;;;0.90;;
33830;SDS011;20137;48.834;8.732;2024-02-26T04:13:35;3.30;;;1.27;;
33830;SDS011;20137;48.834;8.732;2024-02-26T04:16:05;1.73;;;1.13;;
33830;SDS011;20137;48.834;8.732;2024-02-26T04:18:31;1.50;;;0.98;;
33830;SDS011;20137;48.834;8.732;2024-02-26T04:20:57;2.20;;;0.98;;
33830;SDS011;20137;48.834;8.732;2024-02-26T04:23:23;1.63;;;1.13;;
33830;SDS011;20137;48.834;8.732;2024-02-26T04:25:49;1.90;;;1.17;;
33830;SDS011;20137;48.834;8.732;2024-02-26T04:28:18;1.95;;;1.23;;
33830;SDS011;20137;48.834;8.732;2024-02-26T04:30:45;1.88;;;1.05;;
33830;SDS011;20137;48.834;8.732;2024-02-26T04:33:12;1.20;;;1.00;;
33830;SDS011;20137;48.834;8.732;2024-02-26T04:35:38;2.40;;;1.02;;
33830;SDS011;20137;48.834;8.732;2024-02-26T04:38:04;2.22;;;1.40;;
33830;SDS011;20137;48.834;8.732;2024-02-26T04:40:30;1.55;;;1.10;;
33830;SDS011;20137;48.834;8.732;2024-02-26T04:42:55;1.45;;;1.00;;
33830;SDS011;20137;48.834;8.732;2024-02-26T04:45:22;4.25;;;1.05;;
33830;SDS011;20137;48.834;8.732;2024-02-26T04:47:48;2.85;;;0.90;;
33830;SDS011;20137;48.834;8.732;2024-02-26T04:50:13;2.75;;;1.00;;
33830;SDS011;20137;48.834;8.732;2024-02-26T04:52:39;1.50;;;0.93;;
33830;SDS011;20137;48.834;8.732;2024-02-26T04:55:05;2.42;;;1.15;;
33830;SDS011;20137;48.834;8.732;2024-02-26T04:57:32;1.75;;;1.02;;
33830;SDS011;20137;48.834;8.732;2024-02-26T04:59:58;1.42;;;1.08;;
33830;SDS011;20137;48.834;8.732;2024-02-26T05:02:23;1.73;;;1.00;;
33830;SDS011;20137;48.834;8.732;2024-02-26T05:04:49;2.92;;;1.00;;
33830;SDS011;20137;48.834;8.732;2024-02-26T05:07:15;1.70;;;0.80;;
33830;SDS011;20137;48.834;8.732;2024-02-26T05:09:42;1.83;;;0.88;;
33830;SDS011;20137;48.834;8.732;2024-02-26T05:12:09;0.93;;;0.70;;
33830;SDS011;20137;48.834;8.732;2024-02-26T05:14:35;2.30;;;0.70;;
33830;SDS011;20137;48.834;8.732;2024-02-26T05:17:01;1.98;;;0.73;;
33830;SDS011;20137;48.834;8.732;2024-02-26T05:19:27;0.75;;;0.47;;
33830;SDS011;20137;48.834;8.732;2024-02-26T05:21:52;2.85;;;0.80;;
33830;SDS011;20137;48.834;8.732;2024-02-26T05:24:18;0.90;;;0.55;;
33830;SDS011;20137;48.834;8.732;2024-02-26T05:26:47;1.45;;;0.75;;
33830;SDS011;20137;48.834;8.732;2024-02-26T05:29:13;1.00;;;0.60;;
33830;SDS011;20137;48.834;8.732;2024-02-26T05:31:39;2.22;;;0.93;;
33830;SDS011;20137;48.834;8.732;2024-02-26T05:34:07;1.58;;;0.93;;
33830;SDS011;20137;48.834;8.732;2024-02-26T05:36:32;1.50;;;0.80;;
33830;SDS011;20137;48.834;8.732;2024-02-26T05:39:01;2.25;;;0.88;;
33830;SDS011;20137;48.834;8.732;2024-02-26T05:41:28;1.90;;;0.88;;
33830;SDS011;20137;48.834;8.732;2024-02-26T05:43:54;2.38;;;0.90;;
33830;SDS011;20137;48.834;8.732;2024-02-26T05:46:21;1.23;;;0.70;;
33830;SDS011;20137;48.834;8.732;2024-02-26T05:48:47;1.27;;;0.73;;
33830;SDS011;20137;48.834;8.732;2024-02-26T05:51:14;2.22;;;1.02;;
33830;SDS011;20137;48.834;8.732;2024-02-26T05:53:43;2.47;;;1.30;;
33830;SDS011;20137;48.834;8.732;2024-02-26T05:56:09;1.35;;;1.02;;
33830;SDS011;20137;48.834;8.732;2024-02-26T05:58:35;1.48;;;0.77;;
33830;SDS011;20137;48.834;8.732;2024-02-26T06:01:01;1.33;;;0.88;;
33830;SDS011;20137;48.834;8.732;2024-02-26T06:03:26;1.52;;;1.00;;
33830;SDS011;20137;48.834;8.732;2024-02-26T06:05:52;1.38;;;1.13;;
33830;SDS011;20137;48.834;8.732;2024-02-26T06:08:18;1.90;;;1.00;;
33830;SDS011;20137;48.834;8.732;2024-02-26T06:10:44;1.67;;;1.10;;
33830;SDS011;20137;48.834;8.732;2024-02-26T06:13:10;2.88;;;1.45;;
33830;SDS011;20137;48.834;8.732;2024-02-26T06:15:36;2.05;;;1.30;;
33830;SDS011;20137;48.834;8.732;2024-02-26T06:18:02;1.50;;;1.08;;
33830;SDS011;20137;48.834;8.732;2024-02-26T06:20:28;2.00;;;1.10;;
33830;SDS011;20137;48.834;8.732;2024-02-26T06:22:53;2.67;;;1.30;;
33830;SDS011;20137;48.834;8.732;2024-02-26T06:25:19;2.38;;;0.95;;
33830;SDS011;20137;48.834;8.732;2024-02-26T06:27:45;2.60;;;0.82;;
33830;SDS011;20137;48.834;8.732;2024-02-26T06:30:11;2.72;;;0.80;;
33830;SDS011;20137;48.834;8.732;2024-02-26T06:32:37;1.92;;;0.80;;
33830;SDS011;20137;48.834;8.732;2024-02-26T06:35:03;0.85;;;0.65;;
33830;SDS011;20137;48.834;8.732;2024-02-26T06:37:34;4.22;;;0.95;;
33830;SDS011;20137;48.834;8.732;2024-02-26T06:40:00;1.65;;;1.10;;
33830;SDS011;20137;48.834;8.732;2024-02-26T06:42:29;1.60;;;1.00;;
33830;SDS011;20137;48.834;8.732;2024-02-26T06:44:55;1.95;;;0.93;;
33830;SDS011;20137;48.834;8.732;2024-02-26T06:47:21;1.48;;;1.10;;
33830;SDS011;20137;48.834;8.732;2024-02-26T06:49:46;1.13;;;0.90;;
33830;SDS011;20137;48.834;8.732;2024-02-26T06:52:12;1.40;;;0.60;;
33830;SDS011;20137;48.834;8.732;2024-02-26T06:54:38;1.73;;;1.02;;
33830;SDS011;20137;48.834;8.732;2024-02-26T06:57:03;1.38;;;1.05;;
33830;SDS011;20137;48.834;8.732;2024-02-26T06:59:29;1.98;;;1.13;;
33830;SDS011;20137;48.834;8.732;2024-02-26T07:01:58;1.55;;;1.00;;
33830;SDS011;20137;48.834;8.732;2024-02-26T07:04:24;0.85;;;0.77;;
33830;SDS011;20137;48.834;8.732;2024-02-26T07:06:49;1.55;;;0.70;;
33830;SDS011;20137;48.834;8.732;2024-02-26T07:09:15;1.42;;;0.73;;
33830;SDS011;20137;48.834;8.732;2024-02-26T07:11:41;1.33;;;0.70;;
33830;SDS011;20137;48.834;8.732;2024-02-26T07:14:10;0.90;;;0.60;;
33830;SDS011;20137;48.834;8.732;2024-02-26T07:16:37;2.80;;;0.70;;
33830;SDS011;20137;48.834;8.732;2024-02-26T07:19:03;1.23;;;0.80;;
33830;SDS011;20137;48.834;8.732;2024-02-26T07:21:29;0.70;;;0.60;;
33830;SDS011;20137;48.834;8.732;2024-02-26T07:23:55;2.15;;;1.10;;
33830;SDS011;20137;48.834;8.732;2024-02-26T07:26:21;0.88;;;0.60;;
33830;SDS011;20137;48.834;8.732;2024-02-26T07:28:49;1.67;;;0.90;;
33830;SDS011;20137;48.834;8.732;2024-02-26T07:31:15;1.00;;;0.70;;
33830;SDS011;20137;48.834;8.732;2024-02-26T07:33:42;2.15;;;0.90;;
33830;SDS011;20137;48.834;8.732;2024-02-26T07:36:08;2.05;;;0.80;;
33830;SDS011;20137;48.834;8.732;2024-02-26T07:38:33;1.13;;;0.80;;
33830;SDS011;20137;48.834;8.732;2024-02-26T07:41:01;0.95;;;0.70;;
33830;SDS011;20137;48.834;8.732;2024-02-26T07:43:27;2.08;;;1.45;;
33830;SDS011;20137;48.834;8.732;2024-02-26T07:45:53;1.33;;;0.90;;
33830;SDS011;20137;48.834;8.732;2024-02-26T07:48:18;1.45;;;0.90;;
33830;SDS011;20137;48.834;8.732;2024-02-26T07:50:44;2.90;;;1.02;;
33830;SDS011;20137;48.834;8.732;2024-02-26T07:53:10;1.42;;;0.80;;
33830;SDS011;20137;48.834;8.732;2024-02-26T07:55:36;1.08;;;0.80;;
33830;SDS011;20137;48.834;8.732;2024-02-26T07:58:02;3.22;;;0.90;;
33830;SDS011;20137;48.834;8.732;2024-02-26T08:00:27;1.63;;;0.95;;
33830;SDS011;20137;48.834;8.732;2024-02-26T08:02:53;1.30;;;0.70;;
33830;SDS011;20137;48.834;8.732;2024-02-26T08:05:19;1.20;;;0.75;;
33830;SDS011;20137;48.834;8.732;2024-02-26T08:07:45;3.80;;;0.90;;
33830;SDS011;20137;48.834;8.732;2024-02-26T08:10:10;1.85;;;0.88;;
33830;SDS011;20137;48.834;8.732;2024-02-26T08:12:36;2.50;;;1.13;;
33830;SDS011;20137;48.834;8.732;2024-02-26T08:15:02;1.80;;;1.00;;
33830;SDS011;20137;48.834;8.732;2024-02-26T08:17:28;2.28;;;0.88;;
33830;SDS011;20137;48.834;8.732;2024-02-26T08:19:54;2.33;;;1.15;;
33830;SDS011;20137;48.834;8.732;2024-02-26T08:22:22;1.65;;;1.15;;
33830;SDS011;20137;48.834;8.732;2024-02-26T08:24:47;1.10;;;0.82;;
33830;SDS011;20137;48.834;8.732;2024-02-26T08:27:13;1.05;;;0.70;;
33830;SDS011;20137;48.834;8.732;2024-02-26T08:29:39;1.35;;;0.90;;
33830;SDS011;20137;48.834;8.732;2024-02-26T08:32:04;1.45;;;0.80;;
33830;SDS011;20137;48.834;8.732;2024-02-26T08:34:32;0.75;;;0.70;;
33830;SDS011;20137;48.834;8.732;2024-02-26T08:36:57;2.50;;;1.25;;
33830;SDS011;20137;48.834;8.732;2024-02-26T08:39:23;1.98;;;1.02;;
33830;SDS011;20137;48.834;8.732;2024-02-26T08:41:50;1.35;;;1.05;;
33830;SDS011;20137;48.834;8.732;2024-02-26T08:44:16;3.13;;;1.10;;
33830;SDS011;20137;48.834;8.732;2024-02-26T08:46:42;1.38;;;1.00;;
33830;SDS011;20137;48.834;8.732;2024-02-26T08:49:08;1.35;;;0.90;;
33830;SDS011;20137;48.834;8.732;2024-02-26T08:51:33;3.60;;;1.10;;
33830;SDS011;20137;48.834;8.732;2024-02-26T08:53:59;3.10;;;1.13;;
33830;SDS011;20137;48.834;8.732;2024-02-26T08:56:25;1.38;;;0.82;;
33830;SDS011;20137;48.834;8.732;2024-02-26T08:58:50;2.72;;;1.08;;
33830;SDS011;20137;48.834;8.732;2024-02-26T09:01:18;2.28;;;1.00;;
33830;SDS011;20137;48.834;8.732;2024-02-26T09:03:44;2.30;;;0.98;;
33830;SDS011;20137;48.834;8.732;2024-02-26T09:06:10;1.52;;;0.88;;
33830;SDS011;20137;48.834;8.732;2024-02-26T09:08:39;1.65;;;0.88;;
33830;SDS011;20137;48.834;8.732;2024-02-26T09:11:04;2.35;;;1.00;;
33830;SDS011;20137;48.834;8.732;2024-02-26T09:13:30;2.50;;;1.02;;
33830;SDS011;20137;48.834;8.732;2024-02-26T09:15:56;1.30;;;0.80;;
33830;SDS011;20137;48.834;8.732;2024-02-26T09:18:21;2.15;;;1.00;;
33830;SDS011;20137;48.834;8.732;2024-02-26T09:20:47;2.67;;;0.70;;
33830;SDS011;20137;48.834;8.732;2024-02-26T09:23:13;1.38;;;0.82;;
33830;SDS011;20137;48.834;8.732;2024-02-26T09:25:38;2.78;;;0.90;;
33830;SDS011;20137;48.834;8.732;2024-02-26T09:28:04;1.52;;;0.95;;
33830;SDS011;20137;48.834;8.732;2024-02-26T09:30:30;1.20;;;0.90;;
33830;SDS011;20137;48.834;8.732;2024-02-26T09:32:56;4.80;;;3.13;;
33830;SDS011;20137;48.834;8.732;2024-02-26T09:35:22;3.78;;;2.60;;
33830;SDS011;20137;48.834;8.732;2024-02-26T09:37:48;4.40;;;2.17;;
33830;SDS011;20137;48.834;8.732;2024-02-26T09:40:14;3.85;;;2.03;;
33830;SDS011;20137;48.834;8.732;2024-02-26T09:42:44;2.55;;;1.67;;
33830;SDS011;20137;48.834;8.732;2024-02-26T09:45:19;2.80;;;1.60;;
33830;SDS011;20137;48.834;8.732;2024-02-26T09:47:48;2.17;;;1.55;;
33830;SDS011;20137;48.834;8.732;2024-02-26T09:50:17;3.28;;;1.13;;
33830;SDS011;20137;48.834;8.732;2024-02-26T09:52:43;1.65;;;1.02;;
33830;SDS011;20137;48.834;8.732;2024-02-26T09:55:09;3.78;;;1.20;;
33830;SDS011;20137;48.834;8.732;2024-02-26T09:57:38;2.35;;;0.93;;
33830;SDS011;20137;48.834;8.732;2024-02-26T10:00:11;2.93;;;1.17;;
33830;SDS011;20137;48.834;8.732;2024-02-26T10:02:45;1.85;;;1.10;;
33830;SDS011;20137;48.834;8.732;2024-02-26T10:05:14;1.15;;;1.05;;
33830;SDS011;20137;48.834;8.732;2024-02-26T10:07:44;1.77;;;1.27;;
33830;SDS011;20137;48.834;8.732;2024-02-26T10:10:10;2.05;;;1.30;;
33830;SDS011;20137;48.834;8.732;2024-02-26T10:12:35;3.03;;;1.20;;
33830;SDS011;20137;48.834;8.732;2024-02-26T10:15:01;1.42;;;0.98;;
33830;SDS011;20137;48.834;8.732;2024-02-26T10:17:27;1.10;;;0.90;;
33830;SDS011;20137;48.834;8.732;2024-02-26T10:19:54;3.35;;;0.85;;
33830;SDS011;20137;48.834;8.732;2024-02-26T10:22:21;2.88;;;1.10;;
33830;SDS011;20137;48.834;8.732;2024-02-26T10:24:47;1.95;;;1.25;;
33830;SDS011;20137;48.834;8.732;2024-02-26T10:27:13;1.80;;;1.10;;
33830;SDS011;20137;48.834;8.732;2024-02-26T10:29:40;2.05;;;1.17;;
33830;SDS011;20137;48.834;8.732;2024-02-26T10:32:08;3.10;;;1.10;;
33830;SDS011;20137;48.834;8.732;2024-02-26T10:34:34;2.10;;;0.88;;
33830;SDS011;20137;48.834;8.732;2024-02-26T10:37:03;1.70;;;1.10;;
33830;SDS011;20137;48.834;8.732;2024-02-26T10:39:30;2.03;;;1.20;;
33830;SDS011;20137;48.834;8.732;2024-02-26T10:41:56;2.45;;;1.08;;
33830;SDS011;20137;48.834;8.732;2024-02-26T10:44:21;2.22;;;1.13;;
33830;SDS011;20137;48.834;8.732;2024-02-26T10:46:47;1.73;;;0.82;;
33830;SDS011;20137;48.834;8.732;2024-02-26T10:49:16;1.77;;;0.60;;
33830;SDS011;20137;48.834;8.732;2024-02-26T10:51:44;1.75;;;0.90;;
33830;SDS011;20137;48.834;8.732;2024-02-26T10:54:15;0.90;;;0.80;;
33830;SDS011;20137;48.834;8.732;2024-02-26T10:56:41;2.65;;;0.75;;
33830;SDS011;20137;48.834;8.732;2024-02-26T10:59:11;1.23;;;0.80;;
33830;SDS011;20137;48.834;8.732;2024-02-26T11:01:39;1.63;;;0.82;;
33830;SDS011;20137;48.834;8.732;2024-02-26T11:04:06;1.13;;;0.80;;
33830;SDS011;20137;48.834;8.732;2024-02-26T11:06:33;1.50;;;0.90;;
33830;SDS011;20137;48.834;8.732;2024-02-26T11:09:01;2.63;;;0.80;;
33830;SDS011;20137;48.834;8.732;2024-02-26T11:11:29;1.50;;;0.80;;
33830;SDS011;20137;48.834;8.732;2024-02-26T11:13:56;1.75;;;1.15;;
33830;SDS011;20137;48.834;8.732;2024-02-26T11:16:23;1.73;;;1.20;;
33830;SDS011;20137;48.834;8.732;2024-02-26T11:18:52;2.08;;;0.90;;
33830;SDS011;20137;48.834;8.732;2024-02-26T11:21:21;3.03;;;1.13;;
33830;SDS011;20137;48.834;8.732;2024-02-26T11:24:03;11.65;;;4.40;;
33830;SDS011;20137;48.834;8.732;2024-02-26T11:26:42;18.17;;;7.60;;
33830;SDS011;20137;48.834;8.732;2024-02-26T11:29:24;5.95;;;1.80;;
33830;SDS011;20137;48.834;8.732;2024-02-26T11:31:53;2.80;;;1.67;;
33830;SDS011;20137;48.834;8.732;2024-02-26T11:34:19;3.42;;;1.40;;
33830;SDS011;20137;48.834;8.732;2024-02-26T11:36:46;3.85;;;1.23;;
33830;SDS011;20137;48.834;8.732;2024-02-26T11:39:12;2.00;;;1.00;;
33830;SDS011;20137;48.834;8.732;2024-02-26T11:41:40;3.40;;;1.55;;
33830;SDS011;20137;48.834;8.732;2024-02-26T11:44:06;2.38;;;1.30;;
33830;SDS011;20137;48.834;8.732;2024-02-26T11:46:38;3.30;;;1.40;;
33830;SDS011;20137;48.834;8.732;2024-02-26T11:51:51;2.00;;;1.30;;
33830;SDS011;20137;48.834;8.732;2024-02-26T11:59:49;1.05;;;0.80;;
33830;SDS011;20137;48.834;8.732;2024-02-26T12:05:31;2.00;;;0.90;;
33830;SDS011;20137;48.834;8.732;2024-02-26T12:08:02;1.38;;;0.95;;
33830;SDS011;20137;48.834;8.732;2024-02-26T12:10:31;2.20;;;1.20;;
33830;SDS011;20137;48.834;8.732;2024-02-26T12:15:37;2.20;;;1.00;;
33830;SDS011;20137;48.834;8.732;2024-02-26T12:18:04;0.45;;;0.40;;
33830;SDS011;20137;48.834;8.732;2024-02-26T12:20:32;1.00;;;0.60;;
33830;SDS011;20137;48.834;8.732;2024-02-26T12:22:57;1.55;;;0.85;;
33830;SDS011;20137;48.834;8.732;2024-02-26T12:25:28;2.13;;;1.02;;
33830;SDS011;20137;48.834;8.732;2024-02-26T12:27:55;1.63;;;1.13;;
33830;SDS011;20137;48.834;8.732;2024-02-26T12:30:21;1.92;;;1.15;;
33830;SDS011;20137;48.834;8.732;2024-02-26T12:32:48;1.42;;;0.90;;
33830;SDS011;20137;48.834;8.732;2024-02-26T12:35:16;2.50;;;0.77;;
33830;SDS011;20137;48.834;8.732;2024-02-26T12:37:42;1.48;;;1.17;;
33830;SDS011;20137;48.834;8.732;2024-02-26T12:40:09;1.27;;;0.63;;
33830;SDS011;20137;48.834;8.732;2024-02-26T12:42:36;1.00;;;0.70;;
33830;SDS011;20137;48.834;8.732;2024-02-26T12:45:06;2.33;;;0.70;;
33830;SDS011;20137;48.834;8.732;2024-02-26T12:47:37;1.00;;;0.68;;
33830;SDS011;20137;48.834;8.732;2024-02-26T12:50:10;4.05;;;1.70;;
33830;SDS011;20137;48.834;8.732;2024-02-26T12:52:38;3.78;;;1.90;;
33830;SDS011;20137;48.834;8.732;2024-02-26T12:55:06;5.05;;;1.80;;
33830;SDS011;20137;48.834;8.732;2024-02-26T12:57:38;1.95;;;0.63;;
33830;SDS011;20137;48.834;8.732;2024-02-26T13:00:05;2.92;;;1.27;;
33830;SDS011;20137;48.834;8.732;2024-02-26T13:02:34;1.25;;;0.90;;
33830;SDS011;20137;48.834;8.732;2024-02-26T13:05:02;3.28;;;1.10;;
33830;SDS011;20137;48.834;8.732;2024-02-26T13:07:32;1.08;;;0.63;;
33830;SDS011;20137;48.834;8.732;2024-02-26T13:09:59;1.80;;;0.80;;
33830;SDS011;20137;48.834;8.732;2024-02-26T13:12:25;1.85;;;0.70;;
33830;SDS011;20137;48.834;8.732;2024-02-26T13:15:00;2.30;;;0.80;;
33830;SDS011;20137;48.834;8.732;2024-02-26T13:17:31;1.73;;;1.00;;
33830;SDS011;20137;48.834;8.732;2024-02-26T13:19:57;1.90;;;0.90;;
33830;SDS011;20137;48.834;8.732;2024-02-26T13:22:23;1.48;;;0.65;;
33830;SDS011;20137;48.834;8.732;2024-02-26T13:24:55;4.63;;;2.03;;
33830;SDS011;20137;48.834;8.732;2024-02-26T13:27:22;1.30;;;0.80;;
33830;SDS011;20137;48.834;8.732;2024-02-26T13:29:48;1.38;;;0.80;;
33830;SDS011;20137;48.834;8.732;2024-02-26T13:32:14;2.15;;;0.80;;
33830;SDS011;20137;48.834;8.732;2024-02-26T13:34:39;1.42;;;0.70;;
33830;SDS011;20137;48.834;8.732;2024-02-26T13:37:05;2.60;;;0.80;;
33830;SDS011;20137;48.834;8.732;2024-02-26T13:39:31;2.25;;;0.70;;
33830;SDS011;20137;48.834;8.732;2024-02-26T13:41:57;2.47;;;0.80;;
33830;SDS011;20137;48.834;8.732;2024-02-26T13:44:26;2.17;;;0.73;;
33830;SDS011;20137;48.834;8.732;2024-02-26T13:46:52;0.77;;;0.57;;
33830;SDS011;20137;48.834;8.732;2024-02-26T13:49:19;1.30;;;0.80;;
33830;SDS011;20137;48.834;8.732;2024-02-26T13:51:48;1.52;;;0.90;;
33830;SDS011;20137;48.834;8.732;2024-02-26T13:54:14;1.65;;;0.85;;
33830;SDS011;20137;48.834;8.732;2024-02-26T13:56:40;4.00;;;0.60;;
33830;SDS011;20137;48.834;8.732;2024-02-26T13:59:05;1.00;;;0.70;;
33830;SDS011;20137;48.834;8.732;2024-02-26T14:01:31;0.70;;;0.50;;
33830;SDS011;20137;48.834;8.732;2024-02-26T14:03:58;0.50;;;0.50;;
33830;SDS011;20137;48.834;8.732;2024-02-26T14:06:24;0.68;;;0.60;;
33830;SDS011;20137;48.834;8.732;2024-02-26T14:08:49;1.60;;;1.10;;
33830;SDS011;20137;48.834;8.732;2024-02-26T14:11:15;0.47;;;0.40;;
33830;SDS011;20137;48.834;8.732;2024-02-26T14:13:41;0.73;;;0.40;;
33830;SDS011;20137;48.834;8.732;2024-02-26T14:16:06;2.15;;;0.30;;
33830;SDS011;20137;48.834;8.732;2024-02-26T14:18:32;1.17;;;0.50;;
33830;SDS011;20137;48.834;8.732;2024-02-26T14:20:58;0.80;;;0.40;;
33830;SDS011;20137;48.834;8.732;2024-02-26T14:23:23;1.08;;;0.70;;
33830;SDS011;20137;48.834;8.732;2024-02-26T14:25:49;1.67;;;0.50;;
33830;SDS011;20137;48.834;8.732;2024-02-26T14:28:15;1.75;;;0.80;;
33830;SDS011;20137;48.834;8.732;2024-02-26T14:30:40;1.05;;;0.35;;
33830;SDS011;20137;48.834;8.732;2024-02-26T14:33:06;1.20;;;0.50;;
33830;SDS011;20137;48.834;8.732;2024-02-26T14:35:32;3.72;;;0.70;;
33830;SDS011;20137;48.834;8.732;2024-02-26T14:37:57;0.95;;;0.63;;
33830;SDS011;20137;48.834;8.732;2024-02-26T14:40:26;0.43;;;0.43;;
33830;SDS011;20137;48.834;8.732;2024-02-26T14:42:52;2.28;;;0.77;;
33830;SDS011;20137;48.834;8.732;2024-02-26T14:45:18;5.75;;;0.80;;
33830;SDS011;20137;48.834;8.732;2024-02-26T14:47:44;3.70;;;0.77;;
33830;SDS011;20137;48.834;8.732;2024-02-26T14:50:09;3.30;;;0.93;;
33830;SDS011;20137;48.834;8.732;2024-02-26T14:52:36;2.38;;;1.00;;
33830;SDS011;20137;48.834;8.732;2024-02-26T14:55:02;2.45;;;0.93;;
33830;SDS011;20137;48.834;8.732;2024-02-26T14:57:27;1.83;;;1.10;;
33830;SDS011;20137;48.834;8.732;2024-02-26T14:59:53;1.38;;;0.93;;